sensor_id;sensor_type;location;lat;lon;timestamp;P1;durP1;ratioP1;P2;durP2;ratioP2
49101;SDS011;34913;47.520;19.186;2023-07-31T00:01:25;2.90;;;2.30;;
49101;SDS011;34913;47.520;19.186;2023-07-31T00:03:51;3.72;;;2.17;;
49101;SDS011;34913;47.520;19.186;2023-07-31T00:06:16;2.60;;;2.40;;
49101;SDS011;34913;47.520;19.186;2023-07-31T00:08:42;2.47;;;2.00;;
49101;SDS011;34913;47.520;19.186;2023-07-31T00:11:07;2.47;;;2.13;;
49101;SDS011;34913;47.520;19.186;2023-07-31T00:13:32;4.43;;;2.00;;
49101;SDS011;34913;47.520;19.186;2023-07-31T00:15:58;2.72;;;2.15;;
49101;SDS011;34913;47.520;19.186;2023-07-31T00:18:24;2.25;;;2.05;;
49101;SDS011;34913;47.520;19.186;2023-07-31T00:20:50;2.67;;;2.10;;
49101;SDS011;34913;47.520;19.186;2023-07-31T00:23:15;2.20;;;2.00;;
49101;SDS011;34913;47.520;19.186;2023-07-31T00:25:41;2.30;;;2.10;;
49101;SDS011;34913;47.520;19.186;2023-07-31T00:28:07;3.72;;;2.30;;
49101;SDS011;34913;47.520;19.186;2023-07-31T00:30:32;2.25;;;2.05;;
49101;SDS011;34913;47.520;19.186;2023-07-31T00:32:58;3.00;;;2.20;;
49101;SDS011;34913;47.520;19.186;2023-07-31T00:35:23;2.60;;;2.17;;
49101;SDS011;34913;47.520;19.186;2023-07-31T00:37:48;2.25;;;2.00;;
49101;SDS011;34913;47.520;19.186;2023-07-31T00:40:14;2.30;;;2.00;;
49101;SDS011;34913;47.520;19.186;2023-07-31T00:42:39;4.05;;;2.22;;
49101;SDS011;34913;47.520;19.186;2023-07-31T00:45:05;2.88;;;2.00;;
49101;SDS011;34913;47.520;19.186;2023-07-31T00:47:30;5.10;;;2.10;;
49101;SDS011;34913;47.520;19.186;2023-07-31T00:49:56;2.28;;;2.08;;
49101;SDS011;34913;47.520;19.186;2023-07-31T00:52:22;2.20;;;2.00;;
49101;SDS011;34913;47.520;19.186;2023-07-31T00:54:48;2.40;;;2.20;;
49101;SDS011;34913;47.520;19.186;2023-07-31T00:57:14;2.47;;;2.10;;
49101;SDS011;34913;47.520;19.186;2023-07-31T00:59:40;3.25;;;2.17;;
49101;SDS011;34913;47.520;19.186;2023-07-31T01:02:05;2.90;;;2.30;;
49101;SDS011;34913;47.520;19.186;2023-07-31T01:04:31;4.00;;;2.33;;
49101;SDS011;34913;47.520;19.186;2023-07-31T01:09:47;4.03;;;2.67;;
49101;SDS011;34913;47.520;19.186;2023-07-31T01:12:17;4.22;;;2.67;;
49101;SDS011;34913;47.520;19.186;2023-07-31T01:17:25;4.47;;;2.50;;
49101;SDS011;34913;47.520;19.186;2023-07-31T01:19:51;3.08;;;2.53;;
49101;SDS011;34913;47.520;19.186;2023-07-31T01:22:39;5.63;;;2.75;;
49101;SDS011;34913;47.520;19.186;2023-07-31T01:28:10;3.83;;;2.90;;
49101;SDS011;34913;47.520;19.186;2023-07-31T01:30:43;5.97;;;3.25;;
49101;SDS011;34913;47.520;19.186;2023-07-31T01:33:12;3.50;;;3.13;;
49101;SDS011;34913;47.520;19.186;2023-07-31T01:35:41;3.17;;;2.80;;
49101;SDS011;34913;47.520;19.186;2023-07-31T01:38:09;3.55;;;3.05;;
49101;SDS011;34913;47.520;19.186;2023-07-31T01:40:35;3.28;;;2.97;;
49101;SDS011;34913;47.520;19.186;2023-07-31T01:43:00;4.47;;;3.03;;
49101;SDS011;34913;47.520;19.186;2023-07-31T01:45:26;3.83;;;3.20;;
49101;SDS011;34913;47.520;19.186;2023-07-31T01:47:51;3.80;;;3.10;;
49101;SDS011;34913;47.520;19.186;2023-07-31T01:50:17;4.78;;;3.80;;
49101;SDS011;34913;47.520;19.186;2023-07-31T01:52:42;5.88;;;3.70;;
49101;SDS011;34913;47.520;19.186;2023-07-31T01:55:08;4.32;;;3.92;;
49101;SDS011;34913;47.520;19.186;2023-07-31T01:57:33;6.10;;;4.40;;
49101;SDS011;34913;47.520;19.186;2023-07-31T01:59:58;5.90;;;4.68;;
49101;SDS011;34913;47.520;19.186;2023-07-31T02:02:24;5.22;;;4.15;;
49101;SDS011;34913;47.520;19.186;2023-07-31T02:04:51;5.20;;;4.60;;
49101;SDS011;34913;47.520;19.186;2023-07-31T02:07:17;8.55;;;5.03;;
49101;SDS011;34913;47.520;19.186;2023-07-31T02:09:42;5.45;;;4.70;;
49101;SDS011;34913;47.520;19.186;2023-07-31T02:12:08;7.18;;;4.38;;
49101;SDS011;34913;47.520;19.186;2023-07-31T02:14:33;4.43;;;3.90;;
49101;SDS011;34913;47.520;19.186;2023-07-31T02:16:59;6.05;;;4.03;;
49101;SDS011;34913;47.520;19.186;2023-07-31T02:19:25;5.47;;;4.00;;
49101;SDS011;34913;47.520;19.186;2023-07-31T02:21:50;4.18;;;3.50;;
49101;SDS011;34913;47.520;19.186;2023-07-31T02:24:16;5.38;;;3.33;;
49101;SDS011;34913;47.520;19.186;2023-07-31T02:26:41;3.53;;;3.22;;
49101;SDS011;34913;47.520;19.186;2023-07-31T02:29:07;6.57;;;3.60;;
49101;SDS011;34913;47.520;19.186;2023-07-31T02:31:33;7.00;;;3.30;;
49101;SDS011;34913;47.520;19.186;2023-07-31T02:33:59;10.00;;;3.70;;
49101;SDS011;34913;47.520;19.186;2023-07-31T02:36:24;10.32;;;4.22;;
49101;SDS011;34913;47.520;19.186;2023-07-31T02:38:49;7.22;;;3.80;;
49101;SDS011;34913;47.520;19.186;2023-07-31T02:41:15;4.22;;;3.20;;
49101;SDS011;34913;47.520;19.186;2023-07-31T02:43:40;5.07;;;3.45;;
49101;SDS011;34913;47.520;19.186;2023-07-31T02:46:06;8.20;;;3.40;;
49101;SDS011;34913;47.520;19.186;2023-07-31T02:48:31;4.47;;;3.22;;
49101;SDS011;34913;47.520;19.186;2023-07-31T02:50:57;3.95;;;2.90;;
49101;SDS011;34913;47.520;19.186;2023-07-31T02:53:22;4.40;;;3.03;;
49101;SDS011;34913;47.520;19.186;2023-07-31T02:55:48;3.40;;;3.10;;
49101;SDS011;34913;47.520;19.186;2023-07-31T02:58:13;3.53;;;3.22;;
49101;SDS011;34913;47.520;19.186;2023-07-31T03:00:45;3.70;;;3.20;;
49101;SDS011;34913;47.520;19.186;2023-07-31T03:03:10;4.40;;;3.15;;
49101;SDS011;34913;47.520;19.186;2023-07-31T03:05:36;5.97;;;3.40;;
49101;SDS011;34913;47.520;19.186;2023-07-31T03:08:01;4.88;;;3.00;;
49101;SDS011;34913;47.520;19.186;2023-07-31T03:10:27;6.22;;;3.30;;
49101;SDS011;34913;47.520;19.186;2023-07-31T03:12:52;4.90;;;3.10;;
49101;SDS011;34913;47.520;19.186;2023-07-31T03:15:18;4.95;;;3.30;;
49101;SDS011;34913;47.520;19.186;2023-07-31T03:17:43;3.55;;;2.90;;
49101;SDS011;34913;47.520;19.186;2023-07-31T03:20:09;3.22;;;2.92;;
49101;SDS011;34913;47.520;19.186;2023-07-31T03:22:35;5.10;;;3.22;;
49101;SDS011;34913;47.520;19.186;2023-07-31T03:25:01;4.35;;;2.80;;
49101;SDS011;34913;47.520;19.186;2023-07-31T03:27:27;3.08;;;2.78;;
49101;SDS011;34913;47.520;19.186;2023-07-31T03:29:52;4.80;;;3.00;;
49101;SDS011;34913;47.520;19.186;2023-07-31T03:32:17;4.32;;;2.65;;
49101;SDS011;34913;47.520;19.186;2023-07-31T03:34:43;4.30;;;2.70;;
49101;SDS011;34913;47.520;19.186;2023-07-31T03:37:08;4.82;;;3.10;;
49101;SDS011;34913;47.520;19.186;2023-07-31T03:39:34;4.47;;;2.90;;
49101;SDS011;34913;47.520;19.186;2023-07-31T03:42:00;4.25;;;2.72;;
49101;SDS011;34913;47.520;19.186;2023-07-31T03:44:25;3.03;;;2.70;;
49101;SDS011;34913;47.520;19.186;2023-07-31T03:46:51;3.97;;;2.88;;
49101;SDS011;34913;47.520;19.186;2023-07-31T03:49:16;4.60;;;2.72;;
49101;SDS011;34913;47.520;19.186;2023-07-31T03:51:42;3.05;;;2.75;;
49101;SDS011;34913;47.520;19.186;2023-07-31T03:54:07;4.55;;;2.72;;
49101;SDS011;34913;47.520;19.186;2023-07-31T03:56:33;5.25;;;2.90;;
49101;SDS011;34913;47.520;19.186;2023-07-31T03:58:58;6.65;;;2.92;;
49101;SDS011;34913;47.520;19.186;2023-07-31T04:01:24;5.32;;;2.72;;
49101;SDS011;34913;47.520;19.186;2023-07-31T04:03:49;3.65;;;2.70;;
49101;SDS011;34913;47.520;19.186;2023-07-31T04:06:15;3.05;;;2.50;;
49101;SDS011;34913;47.520;19.186;2023-07-31T04:08:43;3.60;;;2.60;;
49101;SDS011;34913;47.520;19.186;2023-07-31T04:11:11;4.10;;;2.72;;
49101;SDS011;34913;47.520;19.186;2023-07-31T04:13:37;4.22;;;2.50;;
49101;SDS011;34913;47.520;19.186;2023-07-31T04:16:03;2.60;;;2.40;;
49101;SDS011;34913;47.520;19.186;2023-07-31T04:18:29;2.97;;;2.22;;
49101;SDS011;34913;47.520;19.186;2023-07-31T04:20:56;4.53;;;2.47;;
49101;SDS011;34913;47.520;19.186;2023-07-31T04:23:23;4.35;;;2.25;;
49101;SDS011;34913;47.520;19.186;2023-07-31T04:25:49;2.95;;;2.05;;
49101;SDS011;34913;47.520;19.186;2023-07-31T04:28:14;4.32;;;2.28;;
49101;SDS011;34913;47.520;19.186;2023-07-31T04:30:40;3.55;;;2.10;;
49101;SDS011;34913;47.520;19.186;2023-07-31T04:33:05;3.15;;;2.25;;
49101;SDS011;34913;47.520;19.186;2023-07-31T04:35:31;4.28;;;2.10;;
49101;SDS011;34913;47.520;19.186;2023-07-31T04:37:56;2.05;;;1.90;;
49101;SDS011;34913;47.520;19.186;2023-07-31T04:40:21;4.75;;;2.30;;
49101;SDS011;34913;47.520;19.186;2023-07-31T04:42:47;3.10;;;2.05;;
49101;SDS011;34913;47.520;19.186;2023-07-31T04:45:12;5.13;;;2.10;;
49101;SDS011;34913;47.520;19.186;2023-07-31T04:47:39;2.65;;;2.00;;
49101;SDS011;34913;47.520;19.186;2023-07-31T04:50:05;4.22;;;1.88;;
49101;SDS011;34913;47.520;19.186;2023-07-31T04:52:31;3.08;;;2.10;;
49101;SDS011;34913;47.520;19.186;2023-07-31T04:54:56;3.42;;;1.92;;
49101;SDS011;34913;47.520;19.186;2023-07-31T04:57:21;3.63;;;2.03;;
49101;SDS011;34913;47.520;19.186;2023-07-31T04:59:47;4.93;;;1.83;;
49101;SDS011;34913;47.520;19.186;2023-07-31T05:02:12;4.20;;;1.90;;
49101;SDS011;34913;47.520;19.186;2023-07-31T05:04:40;1.95;;;1.75;;
49101;SDS011;34913;47.520;19.186;2023-07-31T05:07:06;2.13;;;1.80;;
49101;SDS011;34913;47.520;19.186;2023-07-31T05:09:31;3.10;;;1.92;;
49101;SDS011;34913;47.520;19.186;2023-07-31T05:11:57;3.83;;;1.98;;
49101;SDS011;34913;47.520;19.186;2023-07-31T05:14:22;3.25;;;1.70;;
49101;SDS011;34913;47.520;19.186;2023-07-31T05:16:47;2.20;;;1.90;;
49101;SDS011;34913;47.520;19.186;2023-07-31T05:19:13;2.17;;;1.63;;
49101;SDS011;34913;47.520;19.186;2023-07-31T05:21:39;3.65;;;1.90;;
49101;SDS011;34913;47.520;19.186;2023-07-31T05:24:04;5.20;;;1.70;;
49101;SDS011;34913;47.520;19.186;2023-07-31T05:26:30;4.70;;;2.40;;
49101;SDS011;34913;47.520;19.186;2023-07-31T05:28:55;3.95;;;1.50;;
49101;SDS011;34913;47.520;19.186;2023-07-31T05:31:21;2.20;;;1.67;;
49101;SDS011;34913;47.520;19.186;2023-07-31T05:33:47;3.53;;;1.77;;
49101;SDS011;34913;47.520;19.186;2023-07-31T05:36:15;2.55;;;1.65;;
49101;SDS011;34913;47.520;19.186;2023-07-31T05:38:40;5.05;;;1.92;;
49101;SDS011;34913;47.520;19.186;2023-07-31T05:41:07;2.95;;;1.70;;
49101;SDS011;34913;47.520;19.186;2023-07-31T05:43:32;2.10;;;1.35;;
49101;SDS011;34913;47.520;19.186;2023-07-31T05:45:57;3.40;;;1.63;;
49101;SDS011;34913;47.520;19.186;2023-07-31T05:48:23;2.92;;;1.30;;
49101;SDS011;34913;47.520;19.186;2023-07-31T05:50:48;2.30;;;1.58;;
49101;SDS011;34913;47.520;19.186;2023-07-31T05:53:14;2.83;;;1.52;;
49101;SDS011;34913;47.520;19.186;2023-07-31T05:55:39;4.82;;;1.50;;
49101;SDS011;34913;47.520;19.186;2023-07-31T05:58:05;2.53;;;1.50;;
49101;SDS011;34913;47.520;19.186;2023-07-31T06:00:30;6.95;;;1.42;;
49101;SDS011;34913;47.520;19.186;2023-07-31T06:02:56;2.47;;;1.40;;
49101;SDS011;34913;47.520;19.186;2023-07-31T06:05:21;1.67;;;1.38;;
49101;SDS011;34913;47.520;19.186;2023-07-31T06:07:47;2.40;;;1.40;;
49101;SDS011;34913;47.520;19.186;2023-07-31T06:10:12;2.50;;;1.30;;
49101;SDS011;34913;47.520;19.186;2023-07-31T06:12:38;7.88;;;1.65;;
49101;SDS011;34913;47.520;19.186;2023-07-31T06:15:03;3.80;;;1.83;;
49101;SDS011;34913;47.520;19.186;2023-07-31T06:17:29;3.17;;;1.23;;
49101;SDS011;34913;47.520;19.186;2023-07-31T06:19:56;3.50;;;1.30;;
49101;SDS011;34913;47.520;19.186;2023-07-31T06:22:21;2.63;;;1.40;;
49101;SDS011;34913;47.520;19.186;2023-07-31T06:24:47;3.72;;;1.15;;
49101;SDS011;34913;47.520;19.186;2023-07-31T06:27:12;5.35;;;1.52;;
49101;SDS011;34913;47.520;19.186;2023-07-31T06:29:38;2.25;;;1.38;;
49101;SDS011;34913;47.520;19.186;2023-07-31T06:32:03;1.60;;;1.25;;
49101;SDS011;34913;47.520;19.186;2023-07-31T06:34:29;5.28;;;1.50;;
49101;SDS011;34913;47.520;19.186;2023-07-31T06:36:55;4.53;;;1.42;;
49101;SDS011;34913;47.520;19.186;2023-07-31T06:39:21;2.60;;;1.40;;
49101;SDS011;34913;47.520;19.186;2023-07-31T06:41:46;3.63;;;1.30;;
49101;SDS011;34913;47.520;19.186;2023-07-31T06:44:12;4.28;;;1.40;;
49101;SDS011;34913;47.520;19.186;2023-07-31T06:46:37;2.90;;;1.45;;
49101;SDS011;34913;47.520;19.186;2023-07-31T06:49:03;2.30;;;1.20;;
49101;SDS011;34913;47.520;19.186;2023-07-31T06:51:28;1.73;;;1.27;;
49101;SDS011;34913;47.520;19.186;2023-07-31T06:53:56;3.25;;;1.40;;
49101;SDS011;34913;47.520;19.186;2023-07-31T06:56:22;6.32;;;1.58;;
49101;SDS011;34913;47.520;19.186;2023-07-31T06:58:47;1.55;;;1.20;;
49101;SDS011;34913;47.520;19.186;2023-07-31T07:01:13;4.90;;;1.88;;
49101;SDS011;34913;47.520;19.186;2023-07-31T07:03:38;3.30;;;1.33;;
49101;SDS011;34913;47.520;19.186;2023-07-31T07:06:03;2.67;;;1.55;;
49101;SDS011;34913;47.520;19.186;2023-07-31T07:08:29;2.55;;;1.30;;
49101;SDS011;34913;47.520;19.186;2023-07-31T07:10:54;1.50;;;1.20;;
49101;SDS011;34913;47.520;19.186;2023-07-31T07:13:20;3.75;;;1.63;;
49101;SDS011;34913;47.520;19.186;2023-07-31T07:15:49;4.95;;;1.40;;
49101;SDS011;34913;47.520;19.186;2023-07-31T07:18:15;3.13;;;1.42;;
49101;SDS011;34913;47.520;19.186;2023-07-31T07:20:46;6.07;;;1.63;;
49101;SDS011;34913;47.520;19.186;2023-07-31T07:23:18;1.42;;;1.30;;
49101;SDS011;34913;47.520;19.186;2023-07-31T07:25:45;4.53;;;1.40;;
49101;SDS011;34913;47.520;19.186;2023-07-31T07:28:11;4.75;;;1.50;;
49101;SDS011;34913;47.520;19.186;2023-07-31T07:30:36;3.15;;;1.30;;
49101;SDS011;34913;47.520;19.186;2023-07-31T07:33:02;2.47;;;1.40;;
49101;SDS011;34913;47.520;19.186;2023-07-31T07:35:27;2.45;;;1.40;;
49101;SDS011;34913;47.520;19.186;2023-07-31T07:37:53;8.50;;;2.53;;
49101;SDS011;34913;47.520;19.186;2023-07-31T07:40:19;2.65;;;1.35;;
49101;SDS011;34913;47.520;19.186;2023-07-31T07:42:44;1.77;;;1.30;;
49101;SDS011;34913;47.520;19.186;2023-07-31T07:45:10;3.22;;;1.27;;
49101;SDS011;34913;47.520;19.186;2023-07-31T07:47:35;2.83;;;1.40;;
49101;SDS011;34913;47.520;19.186;2023-07-31T07:50:01;2.28;;;1.20;;
49101;SDS011;34913;47.520;19.186;2023-07-31T07:52:26;4.80;;;1.30;;
49101;SDS011;34913;47.520;19.186;2023-07-31T07:54:51;3.35;;;1.30;;
49101;SDS011;34913;47.520;19.186;2023-07-31T07:57:17;3.90;;;1.50;;
49101;SDS011;34913;47.520;19.186;2023-07-31T07:59:43;6.45;;;1.30;;
49101;SDS011;34913;47.520;19.186;2023-07-31T08:02:09;3.20;;;1.50;;
49101;SDS011;34913;47.520;19.186;2023-07-31T08:04:34;2.75;;;1.23;;
49101;SDS011;34913;47.520;19.186;2023-07-31T08:06:59;2.30;;;1.40;;
49101;SDS011;34913;47.520;19.186;2023-07-31T08:09:25;1.80;;;1.25;;
49101;SDS011;34913;47.520;19.186;2023-07-31T08:11:50;4.38;;;1.25;;
49101;SDS011;34913;47.520;19.186;2023-07-31T08:14:16;3.05;;;1.27;;
49101;SDS011;34913;47.520;19.186;2023-07-31T08:16:41;4.35;;;1.40;;
49101;SDS011;34913;47.520;19.186;2023-07-31T08:19:06;3.38;;;1.33;;
49101;SDS011;34913;47.520;19.186;2023-07-31T08:21:32;2.30;;;1.10;;
49101;SDS011;34913;47.520;19.186;2023-07-31T08:23:57;3.60;;;1.50;;
49101;SDS011;34913;47.520;19.186;2023-07-31T08:26:23;2.20;;;1.27;;
49101;SDS011;34913;47.520;19.186;2023-07-31T08:28:48;2.97;;;1.65;;
49101;SDS011;34913;47.520;19.186;2023-07-31T08:31:14;2.50;;;1.20;;
49101;SDS011;34913;47.520;19.186;2023-07-31T08:33:39;1.50;;;1.10;;
49101;SDS011;34913;47.520;19.186;2023-07-31T08:36:07;1.27;;;1.05;;
49101;SDS011;34913;47.520;19.186;2023-07-31T08:38:33;2.53;;;1.33;;
49101;SDS011;34913;47.520;19.186;2023-07-31T08:40:58;2.35;;;1.13;;
49101;SDS011;34913;47.520;19.186;2023-07-31T08:43:27;4.88;;;1.10;;
49101;SDS011;34913;47.520;19.186;2023-07-31T08:45:53;2.08;;;1.35;;
49101;SDS011;34913;47.520;19.186;2023-07-31T08:48:19;3.47;;;1.15;;
49101;SDS011;34913;47.520;19.186;2023-07-31T08:50:45;2.85;;;1.20;;
49101;SDS011;34913;47.520;19.186;2023-07-31T08:53:11;1.63;;;1.10;;
49101;SDS011;34913;47.520;19.186;2023-07-31T08:55:37;2.75;;;1.30;;
49101;SDS011;34913;47.520;19.186;2023-07-31T08:58:03;5.13;;;1.30;;
49101;SDS011;34913;47.520;19.186;2023-07-31T09:00:29;1.98;;;1.25;;
49101;SDS011;34913;47.520;19.186;2023-07-31T09:03:02;2.95;;;1.15;;
49101;SDS011;34913;47.520;19.186;2023-07-31T09:05:29;4.07;;;1.48;;
49101;SDS011;34913;47.520;19.186;2023-07-31T09:07:56;2.10;;;1.30;;
49101;SDS011;34913;47.520;19.186;2023-07-31T09:10:23;2.70;;;1.40;;
49101;SDS011;34913;47.520;19.186;2023-07-31T09:12:49;5.25;;;1.10;;
49101;SDS011;34913;47.520;19.186;2023-07-31T09:15:16;2.25;;;1.20;;
49101;SDS011;34913;47.520;19.186;2023-07-31T09:17:42;3.67;;;1.40;;
49101;SDS011;34913;47.520;19.186;2023-07-31T09:20:20;6.80;;;1.50;;
49101;SDS011;34913;47.520;19.186;2023-07-31T09:22:46;4.95;;;1.27;;
49101;SDS011;34913;47.520;19.186;2023-07-31T09:25:20;2.28;;;1.23;;
49101;SDS011;34913;47.520;19.186;2023-07-31T09:27:54;3.33;;;1.40;;
49101;SDS011;34913;47.520;19.186;2023-07-31T09:30:23;2.45;;;1.20;;
49101;SDS011;34913;47.520;19.186;2023-07-31T09:32:49;2.97;;;1.25;;
49101;SDS011;34913;47.520;19.186;2023-07-31T09:35:19;3.60;;;1.27;;
49101;SDS011;34913;47.520;19.186;2023-07-31T09:37:53;1.85;;;1.20;;
49101;SDS011;34913;47.520;19.186;2023-07-31T09:42:59;3.58;;;1.30;;
49101;SDS011;34913;47.520;19.186;2023-07-31T09:45:26;4.25;;;1.50;;
49101;SDS011;34913;47.520;19.186;2023-07-31T09:47:52;2.42;;;1.40;;
49101;SDS011;34913;47.520;19.186;2023-07-31T09:50:20;1.65;;;1.30;;
49101;SDS011;34913;47.520;19.186;2023-07-31T09:52:47;3.97;;;1.25;;
49101;SDS011;34913;47.520;19.186;2023-07-31T09:55:12;4.57;;;1.20;;
49101;SDS011;34913;47.520;19.186;2023-07-31T09:57:39;2.25;;;1.20;;
49101;SDS011;34913;47.520;19.186;2023-07-31T10:00:07;3.58;;;1.10;;
49101;SDS011;34913;47.520;19.186;2023-07-31T10:02:34;2.63;;;1.30;;
49101;SDS011;34913;47.520;19.186;2023-07-31T10:05:02;2.50;;;1.42;;
49101;SDS011;34913;47.520;19.186;2023-07-31T10:07:29;3.78;;;1.30;;
49101;SDS011;34913;47.520;19.186;2023-07-31T10:09:59;3.95;;;1.13;;
49101;SDS011;34913;47.520;19.186;2023-07-31T10:12:26;1.52;;;1.10;;
49101;SDS011;34913;47.520;19.186;2023-07-31T10:14:55;3.35;;;1.20;;
49101;SDS011;34913;47.520;19.186;2023-07-31T10:17:21;3.85;;;1.35;;
49101;SDS011;34913;47.520;19.186;2023-07-31T10:19:48;4.22;;;1.15;;
49101;SDS011;34913;47.520;19.186;2023-07-31T10:22:14;4.05;;;1.15;;
49101;SDS011;34913;47.520;19.186;2023-07-31T10:24:41;2.33;;;1.10;;
49101;SDS011;34913;47.520;19.186;2023-07-31T10:27:07;1.85;;;1.10;;
49101;SDS011;34913;47.520;19.186;2023-07-31T10:29:35;3.25;;;1.48;;
49101;SDS011;34913;47.520;19.186;2023-07-31T10:32:03;5.00;;;1.10;;
49101;SDS011;34913;47.520;19.186;2023-07-31T10:34:33;1.88;;;1.10;;
49101;SDS011;34913;47.520;19.186;2023-07-31T10:39:55;3.28;;;1.20;;
49101;SDS011;34913;47.520;19.186;2023-07-31T10:44:57;3.17;;;1.10;;
49101;SDS011;34913;47.520;19.186;2023-07-31T10:47:45;4.28;;;1.42;;
49101;SDS011;34913;47.520;19.186;2023-07-31T10:52:44;1.90;;;1.10;;
49101;SDS011;34913;47.520;19.186;2023-07-31T10:55:59;4.25;;;1.52;;
49101;SDS011;34913;47.520;19.186;2023-07-31T10:58:12;6.32;;;1.70;;
49101;SDS011;34913;47.520;19.186;2023-07-31T11:00:42;2.25;;;1.30;;
49101;SDS011;34913;47.520;19.186;2023-07-31T11:03:10;3.50;;;1.40;;
49101;SDS011;34913;47.520;19.186;2023-07-31T11:08:26;3.42;;;1.45;;
49101;SDS011;34913;47.520;19.186;2023-07-31T11:13:28;3.05;;;1.13;;
49101;SDS011;34913;47.520;19.186;2023-07-31T11:15:54;2.83;;;1.30;;
49101;SDS011;34913;47.520;19.186;2023-07-31T11:18:19;2.22;;;1.40;;
49101;SDS011;34913;47.520;19.186;2023-07-31T11:20:45;2.60;;;1.10;;
49101;SDS011;34913;47.520;19.186;2023-07-31T11:23:11;2.42;;;1.08;;
49101;SDS011;34913;47.520;19.186;2023-07-31T11:25:37;1.83;;;1.10;;
49101;SDS011;34913;47.520;19.186;2023-07-31T11:28:10;3.50;;;1.30;;
49101;SDS011;34913;47.520;19.186;2023-07-31T11:30:37;4.53;;;1.55;;
49101;SDS011;34913;47.520;19.186;2023-07-31T11:33:04;2.08;;;1.27;;
49101;SDS011;34913;47.520;19.186;2023-07-31T11:35:33;1.70;;;1.05;;
49101;SDS011;34913;47.520;19.186;2023-07-31T11:38:09;3.92;;;1.10;;
49101;SDS011;34913;47.520;19.186;2023-07-31T11:40:42;1.98;;;1.10;;
49101;SDS011;34913;47.520;19.186;2023-07-31T11:43:09;2.83;;;1.15;;
49101;SDS011;34913;47.520;19.186;2023-07-31T11:45:39;2.67;;;1.30;;
49101;SDS011;34913;47.520;19.186;2023-07-31T11:48:05;4.45;;;1.25;;
49101;SDS011;34913;47.520;19.186;2023-07-31T11:50:30;1.77;;;1.17;;
49101;SDS011;34913;47.520;19.186;2023-07-31T11:53:00;1.70;;;1.17;;
49101;SDS011;34913;47.520;19.186;2023-07-31T11:55:32;1.30;;;1.00;;
49101;SDS011;34913;47.520;19.186;2023-07-31T11:57:58;4.43;;;1.20;;
49101;SDS011;34913;47.520;19.186;2023-07-31T12:00:24;3.05;;;1.20;;
49101;SDS011;34913;47.520;19.186;2023-07-31T12:02:51;5.32;;;1.80;;
49101;SDS011;34913;47.520;19.186;2023-07-31T12:05:17;3.53;;;1.08;;
49101;SDS011;34913;47.520;19.186;2023-07-31T12:07:46;3.80;;;1.20;;
49101;SDS011;34913;47.520;19.186;2023-07-31T12:10:26;3.65;;;1.30;;
49101;SDS011;34913;47.520;19.186;2023-07-31T12:13:04;2.88;;;1.50;;
49101;SDS011;34913;47.520;19.186;2023-07-31T12:15:38;4.32;;;1.23;;
49101;SDS011;34913;47.520;19.186;2023-07-31T12:18:14;2.17;;;1.17;;
49101;SDS011;34913;47.520;19.186;2023-07-31T12:20:58;6.65;;;1.33;;
49101;SDS011;34913;47.520;19.186;2023-07-31T12:23:30;2.00;;;1.17;;
49101;SDS011;34913;47.520;19.186;2023-07-31T12:28:34;4.20;;;1.40;;
49101;SDS011;34913;47.520;19.186;2023-07-31T12:31:01;2.72;;;1.30;;
49101;SDS011;34913;47.520;19.186;2023-07-31T12:33:34;1.80;;;1.20;;
49101;SDS011;34913;47.520;19.186;2023-07-31T12:36:01;2.40;;;1.20;;
49101;SDS011;34913;47.520;19.186;2023-07-31T12:38:33;4.63;;;1.25;;
49101;SDS011;34913;47.520;19.186;2023-07-31T12:40:59;2.28;;;1.10;;
49101;SDS011;34913;47.520;19.186;2023-07-31T12:43:25;5.55;;;1.30;;
49101;SDS011;34913;47.520;19.186;2023-07-31T12:45:50;2.42;;;1.10;;
49101;SDS011;34913;47.520;19.186;2023-07-31T12:48:16;2.40;;;1.33;;
49101;SDS011;34913;47.520;19.186;2023-07-31T12:50:41;4.68;;;1.52;;
49101;SDS011;34913;47.520;19.186;2023-07-31T12:53:07;2.53;;;1.15;;
49101;SDS011;34913;47.520;19.186;2023-07-31T12:55:32;2.80;;;1.25;;
49101;SDS011;34913;47.520;19.186;2023-07-31T12:57:59;2.53;;;1.20;;
49101;SDS011;34913;47.520;19.186;2023-07-31T13:00:25;4.57;;;1.30;;
49101;SDS011;34913;47.520;19.186;2023-07-31T13:02:51;2.38;;;1.40;;
49101;SDS011;34913;47.520;19.186;2023-07-31T13:05:16;3.95;;;1.35;;
49101;SDS011;34913;47.520;19.186;2023-07-31T13:07:42;1.85;;;1.10;;
49101;SDS011;34913;47.520;19.186;2023-07-31T13:10:07;4.78;;;1.40;;
49101;SDS011;34913;47.520;19.186;2023-07-31T13:12:33;4.25;;;1.40;;
49101;SDS011;34913;47.520;19.186;2023-07-31T13:14:59;3.20;;;1.30;;
49101;SDS011;34913;47.520;19.186;2023-07-31T13:17:24;3.88;;;1.38;;
49101;SDS011;34913;47.520;19.186;2023-07-31T13:19:50;2.72;;;1.10;;
49101;SDS011;34913;47.520;19.186;2023-07-31T13:22:16;2.60;;;1.10;;
49101;SDS011;34913;47.520;19.186;2023-07-31T13:24:41;4.60;;;1.40;;
49101;SDS011;34913;47.520;19.186;2023-07-31T13:27:06;3.05;;;1.17;;
49101;SDS011;34913;47.520;19.186;2023-07-31T13:29:32;4.22;;;1.10;;
49101;SDS011;34913;47.520;19.186;2023-07-31T13:31:57;2.63;;;1.30;;
49101;SDS011;34913;47.520;19.186;2023-07-31T13:34:22;3.58;;;1.33;;
49101;SDS011;34913;47.520;19.186;2023-07-31T13:36:48;3.00;;;1.30;;
49101;SDS011;34913;47.520;19.186;2023-07-31T13:39:13;1.92;;;1.20;;
49101;SDS011;34913;47.520;19.186;2023-07-31T13:41:39;4.07;;;1.30;;
49101;SDS011;34913;47.520;19.186;2023-07-31T13:44:04;2.05;;;1.10;;
49101;SDS011;34913;47.520;19.186;2023-07-31T13:46:29;2.45;;;1.15;;
49101;SDS011;34913;47.520;19.186;2023-07-31T13:48:55;6.15;;;1.50;;
49101;SDS011;34913;47.520;19.186;2023-07-31T13:51:24;1.98;;;1.30;;
49101;SDS011;34913;47.520;19.186;2023-07-31T13:53:49;3.88;;;1.17;;
49101;SDS011;34913;47.520;19.186;2023-07-31T13:56:14;2.40;;;1.15;;
49101;SDS011;34913;47.520;19.186;2023-07-31T13:58:40;2.35;;;1.30;;
49101;SDS011;34913;47.520;19.186;2023-07-31T14:01:05;1.65;;;1.10;;
49101;SDS011;34913;47.520;19.186;2023-07-31T14:03:31;5.10;;;1.23;;
49101;SDS011;34913;47.520;19.186;2023-07-31T14:05:56;3.58;;;1.40;;
49101;SDS011;34913;47.520;19.186;2023-07-31T14:08:22;3.13;;;1.27;;
49101;SDS011;34913;47.520;19.186;2023-07-31T14:10:47;2.45;;;0.98;;
49101;SDS011;34913;47.520;19.186;2023-07-31T14:13:13;2.90;;;1.10;;
49101;SDS011;34913;47.520;19.186;2023-07-31T14:15:39;2.53;;;1.20;;
49101;SDS011;34913;47.520;19.186;2023-07-31T14:18:06;3.40;;;1.40;;
49101;SDS011;34913;47.520;19.186;2023-07-31T14:20:32;2.33;;;1.27;;
49101;SDS011;34913;47.520;19.186;2023-07-31T14:22:57;1.60;;;1.10;;
49101;SDS011;34913;47.520;19.186;2023-07-31T14:25:22;1.33;;;1.20;;
49101;SDS011;34913;47.520;19.186;2023-07-31T14:27:48;5.40;;;1.30;;
49101;SDS011;34913;47.520;19.186;2023-07-31T14:30:13;2.92;;;1.23;;
49101;SDS011;34913;47.520;19.186;2023-07-31T14:32:39;4.32;;;1.25;;
49101;SDS011;34913;47.520;19.186;2023-07-31T14:35:04;2.15;;;1.10;;
49101;SDS011;34913;47.520;19.186;2023-07-31T14:37:39;3.35;;;1.60;;
49101;SDS011;34913;47.520;19.186;2023-07-31T14:40:06;4.05;;;1.40;;
49101;SDS011;34913;47.520;19.186;2023-07-31T14:42:33;6.38;;;1.10;;
49101;SDS011;34913;47.520;19.186;2023-07-31T14:44:59;1.63;;;1.13;;
49101;SDS011;34913;47.520;19.186;2023-07-31T14:47:25;2.55;;;1.20;;
49101;SDS011;34913;47.520;19.186;2023-07-31T14:49:50;2.13;;;1.20;;
49101;SDS011;34913;47.520;19.186;2023-07-31T14:52:16;2.47;;;1.10;;
49101;SDS011;34913;47.520;19.186;2023-07-31T14:54:41;2.42;;;1.30;;
49101;SDS011;34913;47.520;19.186;2023-07-31T14:57:06;2.95;;;1.23;;